^^
Saratoga-Weather Station Historical Data
Daily Summary for December 21, 2021 Units:  Both    English   Metric
Daily Weekly Monthly Yearly Custom
  High: Low: Average:
Temperature: 36.5 °F /  2.5 °C 32 °F /   °C 30.6 °F /  -0.8 °C
Dew Point: 30 °F /  -1.1 °C 32 °F /   °C 27.1 °F /  -2.7 °C
Humidity: 91% % 85%
Wind Speed: 4mph /  6.4km/h - 0.3mph /  0.5km/h
Wind Gust: 6mph /  9.7km/h - -
Wind- - SSE
Pressure: 30.3 in /  1025.1 hPa 0 in /  0.0 hPa -
Precipitation: 0 in /  0.0 mm    
Historical Graphs
 
 
Tabular Data for December 21, 2021
Time Temperature Dew Point Pressure Wind Wind Speed Wind Gust Humidity Rainfall Rate (Hourly) solar
00:03 29.8 °F /  -1.2 °C 27.3 °F /  -2.6 °C 30.3in /  1025.1hPa Calm     90% 0in /  0.0mm 0 W/m2
00:08 29.8 °F /  -1.2 °C 27.3 °F /  -2.6 °C 30.3in /  1025.1hPa Calm   1mph /  1.6km/h 90% 0in /  0.0mm 0 W/m2
00:13 29.8 °F /  -1.2 °C 27.3 °F /  -2.6 °C 30.3in /  1025.1hPa Calm   1mph /  1.6km/h 90% 0in /  0.0mm 0 W/m2
00:18 29.8 °F /  -1.2 °C 27.3 °F /  -2.6 °C 30.3in /  1025.1hPa Calm   1mph /  1.6km/h 90% 0in /  0.0mm 0 W/m2
00:23 29.8 °F /  -1.2 °C 27.3 °F /  -2.6 °C 30.3in /  1025.1hPa Calm   1mph /  1.6km/h 90% 0in /  0.0mm 0 W/m2
00:28 29.8 °F /  -1.2 °C 27.3 °F /  -2.6 °C 30.3in /  1025.1hPa Calm   1mph /  1.6km/h 90% 0in /  0.0mm 0 W/m2
00:33 30 °F /  -1.1 °C 27.5 °F /  -2.5 °C 30.3in /  1025.1hPa Calm     90% 0in /  0.0mm 0 W/m2
00:38 30 °F /  -1.1 °C 27.5 °F /  -2.5 °C 30.3in /  1025.1hPa Calm     90% 0in /  0.0mm 0 W/m2
00:43 29.8 °F /  -1.2 °C 27.3 °F /  -2.6 °C 30.3in /  1024.7hPa Calm     90% 0in /  0.0mm 0 W/m2
00:48 29.7 °F /  -1.3 °C 27.1 °F /  -2.7 °C 30.3in /  1024.7hPa Calm     90% 0in /  0.0mm 0 W/m2
00:53 29.7 °F /  -1.3 °C 27.1 °F /  -2.7 °C 30.3in /  1024.7hPa Calm     90% 0in /  0.0mm 0 W/m2
00:58 29.5 °F /  -1.4 °C 27 °F /  -2.8 °C 30.3in /  1024.7hPa Calm     90% 0in /  0.0mm 0 W/m2
01:03 29.5 °F /  -1.4 °C 27 °F /  -2.8 °C 30.3in /  1024.7hPa Calm     90% 0in /  0.0mm 0 W/m2
01:08 29.1 °F /  -1.6 °C 26.6 °F /  -3 °C 30.3in /  1024.7hPa Calm     90% 0in /  0.0mm 0 W/m2
01:13 29.1 °F /  -1.6 °C 26.6 °F /  -3 °C 30.3in /  1024.7hPa Calm     90% 0in /  0.0mm 0 W/m2
01:18 29.1 °F /  -1.6 °C 26.8 °F /  -2.9 °C 30.3in /  1024.7hPa Calm     91% 0in /  0.0mm 0 W/m2
01:23 28.9 °F /  -1.7 °C 26.6 °F /  -3 °C 30.3in /  1024.7hPa Calm     91% 0in /  0.0mm 0 W/m2
01:28 28.9 °F /  -1.7 °C 26.6 °F /  -3 °C 30.3in /  1024.7hPa Calm     91% 0in /  0.0mm 0 W/m2
01:33 28.9 °F /  -1.7 °C 26.6 °F /  -3 °C 30.3in /  1024.4hPa Calm     91% 0in /  0.0mm 0 W/m2
01:38 28.9 °F /  -1.7 °C 26.6 °F /  -3 °C 30.3in /  1024.4hPa Calm   1mph /  1.6km/h 91% 0in /  0.0mm 0 W/m2
01:43 29.1 °F /  -1.6 °C 26.8 °F /  -2.9 °C 30.3in /  1024.4hPa Calm     91% 0in /  0.0mm 0 W/m2
01:48 29.1 °F /  -1.6 °C 26.8 °F /  -2.9 °C 30.3in /  1024.4hPa Calm     91% 0in /  0.0mm 0 W/m2
01:53 29.1 °F /  -1.6 °C 26.8 °F /  -2.9 °C 30.3in /  1024.4hPa Calm   2mph /  3.2km/h 91% 0in /  0.0mm 0 W/m2
01:58 29.3 °F /  -1.5 °C 27 °F /  -2.8 °C 30.3in /  1024.4hPa Calm     91% 0in /  0.0mm 0 W/m2
02:03 29.5 °F /  -1.4 °C 27.1 °F /  -2.7 °C 30.3in /  1024.4hPa Calm   2mph /  3.2km/h 91% 0in /  0.0mm 0 W/m2
02:08 29.7 °F /  -1.3 °C 27.3 °F /  -2.6 °C 30.3in /  1024.4hPa North 2mph /  3.2km/h 3mph /  4.8km/h 91% 0in /  0.0mm 0 W/m2
02:13 29.8 °F /  -1.2 °C 27.5 °F /  -2.5 °C 30.3in /  1024.4hPa Calm   2mph /  3.2km/h 91% 0in /  0.0mm 0 W/m2
02:18 30.2 °F /  -1 °C 27.7 °F /  -2.4 °C 30.3in /  1024.4hPa Calm     90% 0in /  0.0mm 0 W/m2
02:23 30.2 °F /  -1 °C 27.7 °F /  -2.4 °C 30.3in /  1024.4hPa Calm   2mph /  3.2km/h 90% 0in /  0.0mm 0 W/m2
02:28 30.2 °F /  -1 °C 27.3 °F /  -2.6 °C 30.3in /  1024.4hPa Calm     89% 0in /  0.0mm 0 W/m2
02:33 30.2 °F /  -1 °C 27.3 °F /  -2.6 °C 30.3in /  1024.4hPa Calm   1mph /  1.6km/h 89% 0in /  0.0mm 0 W/m2
02:38 30 °F /  -1.1 °C 27.1 °F /  -2.7 °C 30.3in /  1024.4hPa Calm     89% 0in /  0.0mm 0 W/m2
02:43 29.8 °F /  -1.2 °C 26.8 °F /  -2.9 °C 30.3in /  1024.4hPa Calm     88% 0in /  0.0mm 0 W/m2
02:48 29.5 °F /  -1.4 °C 26.6 °F /  -3 °C 30.3in /  1024.4hPa Calm   1mph /  1.6km/h 89% 0in /  0.0mm 0 W/m2
03:07 29.3 °F /  -1.5 °C 26.8 °F /  -2.9 °C 30.3in /  1024.4hPa Calm     90% 0in /  0.0mm 0 W/m2
03:12 29.3 °F /  -1.5 °C 26.8 °F /  -2.9 °C 30.3in /  1024.4hPa Calm     90% 0in /  0.0mm 0 W/m2
03:17 29.5 °F /  -1.4 °C 27 °F /  -2.8 °C 30.3in /  1024.4hPa Calm   2mph /  3.2km/h 90% 0in /  0.0mm 0 W/m2
03:23 29.7 °F /  -1.3 °C 27.1 °F /  -2.7 °C 30.3in /  1024.4hPa Calm   1mph /  1.6km/h 90% 0in /  0.0mm 0 W/m2
03:28 29.8 °F /  -1.2 °C 27.3 °F /  -2.6 °C 30.3in /  1024.4hPa Calm   1mph /  1.6km/h 90% 0in /  0.0mm 0 W/m2
03:33 30 °F /  -1.1 °C 27.5 °F /  -2.5 °C 30.3in /  1024.4hPa Calm   1mph /  1.6km/h 90% 0in /  0.0mm 0 W/m2
03:38 30 °F /  -1.1 °C 27.5 °F /  -2.5 °C 30.3in /  1024.4hPa Calm   2mph /  3.2km/h 90% 0in /  0.0mm 0 W/m2
03:43 30 °F /  -1.1 °C 27.1 °F /  -2.7 °C 30.2in /  1024.0hPa ENE 0.9mph /  1.4km/h 1mph /  1.6km/h 89% 0in /  0.0mm 0 W/m2
03:48 30 °F /  -1.1 °C 27.1 °F /  -2.7 °C 30.2in /  1024.0hPa Calm   2mph /  3.2km/h 89% 0in /  0.0mm 0 W/m2
03:53 30 °F /  -1.1 °C 27.1 °F /  -2.7 °C 30.2in /  1024.0hPa Calm   1mph /  1.6km/h 89% 0in /  0.0mm 0 W/m2
03:58 30 °F /  -1.1 °C 27 °F /  -2.8 °C 30.2in /  1024.0hPa Calm   2mph /  3.2km/h 88% 0in /  0.0mm 0 W/m2
04:03 30 °F /  -1.1 °C 27 °F /  -2.8 °C 30.2in /  1024.0hPa Calm     88% 0in /  0.0mm 0 W/m2
04:08 30 °F /  -1.1 °C 27 °F /  -2.8 °C 30.3in /  1024.4hPa Calm     88% 0in /  0.0mm 0 W/m2
04:13 30 °F /  -1.1 °C 27 °F /  -2.8 °C 30.2in /  1024.0hPa West 0.9mph /  1.4km/h 2mph /  3.2km/h 88% 0in /  0.0mm 0 W/m2
04:18 29.8 °F /  -1.2 °C 26.8 °F /  -2.9 °C 30.3in /  1024.4hPa Calm   1mph /  1.6km/h 88% 0in /  0.0mm 0 W/m2
04:23 30 °F /  -1.1 °C 27 °F /  -2.8 °C 30.2in /  1024.0hPa North 0.9mph /  1.4km/h 1mph /  1.6km/h 88% 0in /  0.0mm 0 W/m2
04:28 30 °F /  -1.1 °C 27 °F /  -2.8 °C 30.2in /  1024.0hPa Calm   2mph /  3.2km/h 88% 0in /  0.0mm 0 W/m2
04:33 30 °F /  -1.1 °C 26.6 °F /  -3 °C 30.2in /  1024.0hPa Calm     87% 0in /  0.0mm 0 W/m2
04:38 30 °F /  -1.1 °C 26.6 °F /  -3 °C 30.2in /  1024.0hPa West 0.9mph /  1.4km/h 2mph /  3.2km/h 87% 0in /  0.0mm 0 W/m2
04:43 30 °F /  -1.1 °C 26.6 °F /  -3 °C 30.2in /  1024.0hPa Calm   1mph /  1.6km/h 87% 0in /  0.0mm 0 W/m2
04:48 29.8 °F /  -1.2 °C 26.4 °F /  -3.1 °C 30.2in /  1024.0hPa West 0.9mph /  1.4km/h 2mph /  3.2km/h 87% 0in /  0.0mm 0 W/m2
04:53 29.8 °F /  -1.2 °C 26.4 °F /  -3.1 °C 30.2in /  1024.0hPa Calm   1mph /  1.6km/h 87% 0in /  0.0mm 0 W/m2
04:58 29.7 °F /  -1.3 °C 26.2 °F /  -3.2 °C 30.2in /  1024.0hPa Calm     87% 0in /  0.0mm 0 W/m2
05:03 29.5 °F /  -1.4 °C 26.1 °F /  -3.3 °C 30.2in /  1024.0hPa Calm     87% 0in /  0.0mm 0 W/m2
05:08 29.3 °F /  -1.5 °C 26.2 °F /  -3.2 °C 30.2in /  1024.0hPa Calm   1mph /  1.6km/h 88% 0in /  0.0mm 0 W/m2
05:13 29.1 °F /  -1.6 °C 26.1 °F /  -3.3 °C 30.2in /  1024.0hPa Calm   1mph /  1.6km/h 88% 0in /  0.0mm 0 W/m2
05:18 28.9 °F /  -1.7 °C 25.9 °F /  -3.4 °C 30.2in /  1024.0hPa Calm     88% 0in /  0.0mm 0 W/m2
05:23 28.8 °F /  -1.8 °C 25.7 °F /  -3.5 °C 30.2in /  1024.0hPa Calm   2mph /  3.2km/h 88% 0in /  0.0mm 0 W/m2
05:28 28.8 °F /  -1.8 °C 25.7 °F /  -3.5 °C 30.2in /  1024.0hPa South 0.9mph /  1.4km/h 1mph /  1.6km/h 88% 0in /  0.0mm 0 W/m2
05:33 28.8 °F /  -1.8 °C 25.7 °F /  -3.5 °C 30.2in /  1024.0hPa West 0.9mph /  1.4km/h 2mph /  3.2km/h 88% 0in /  0.0mm 0 W/m2
05:38 28.8 °F /  -1.8 °C 25.7 °F /  -3.5 °C 30.2in /  1024.0hPa Calm     88% 0in /  0.0mm 0 W/m2
05:43 28.8 °F /  -1.8 °C 25.7 °F /  -3.5 °C 30.2in /  1024.0hPa Calm   1mph /  1.6km/h 88% 0in /  0.0mm 0 W/m2
05:48 28.8 °F /  -1.8 °C 25.7 °F /  -3.5 °C 30.2in /  1024.0hPa Calm     88% 0in /  0.0mm 0 W/m2
05:53 28.6 °F /  -1.9 °C 25.5 °F /  -3.6 °C 30.2in /  1024.0hPa West 0.9mph /  1.4km/h 1mph /  1.6km/h 88% 0in /  0.0mm 0 W/m2
05:58 28.6 °F /  -1.9 °C 25.5 °F /  -3.6 °C 30.2in /  1024.0hPa Calm   1mph /  1.6km/h 88% 0in /  0.0mm 0 W/m2
06:03 28.4 °F /  -2 °C 25.5 °F /  -3.6 °C 30.2in /  1024.0hPa Calm   1mph /  1.6km/h 89% 0in /  0.0mm 0 W/m2
06:08 28.4 °F /  -2 °C 25.5 °F /  -3.6 °C 30.2in /  1024.0hPa Calm     89% 0in /  0.0mm 0 W/m2
06:13 28.4 °F /  -2 °C 25.5 °F /  -3.6 °C 30.2in /  1024.0hPa Calm   2mph /  3.2km/h 89% 0in /  0.0mm 0 W/m2
06:18 28.6 °F /  -1.9 °C 25.7 °F /  -3.5 °C 30.2in /  1024.0hPa West 0.9mph /  1.4km/h 1mph /  1.6km/h 89% 0in /  0.0mm 0 W/m2
06:23 28.6 °F /  -1.9 °C 25.7 °F /  -3.5 °C 30.2in /  1024.0hPa Calm   2mph /  3.2km/h 89% 0in /  0.0mm 0 W/m2
06:28 28.4 °F /  -2 °C 25.3 °F /  -3.7 °C 30.2in /  1024.0hPa Calm   1mph /  1.6km/h 88% 0in /  0.0mm 0 W/m2
06:33 28.4 °F /  -2 °C 25.3 °F /  -3.7 °C 30.2in /  1023.7hPa Calm     88% 0in /  0.0mm 0 W/m2
06:38 28.4 °F /  -2 °C 25.5 °F /  -3.6 °C 30.2in /  1023.7hPa Calm     89% 0in /  0.0mm 0 W/m2
06:44 28.2 °F /  -2.1 °C 25.2 °F /  -3.8 °C 30.2in /  1023.7hPa Calm     88% 0in /  0.0mm 0 W/m2
06:49 28 °F /  -2.2 °C 25 °F /  -3.9 °C 30.2in /  1023.7hPa Calm     88% 0in /  0.0mm 0 W/m2
06:54 27.9 °F /  -2.3 °C 24.8 °F /  -4 °C 30.2in /  1024.0hPa Calm     88% 0in /  0.0mm 0 W/m2
06:59 27.7 °F /  -2.4 °C 24.8 °F /  -4 °C 30.2in /  1024.0hPa Calm   1mph /  1.6km/h 89% 0in /  0.0mm 0 W/m2
07:04 27.5 °F /  -2.5 °C 24.6 °F /  -4.1 °C 30.2in /  1024.0hPa Calm     89% 0in /  0.0mm 0 W/m2
07:09 27.3 °F /  -2.6 °C 24.4 °F /  -4.2 °C 30.2in /  1024.0hPa Calm     89% 0in /  0.0mm 0 W/m2
07:14 27.1 °F /  -2.7 °C 24.3 °F /  -4.3 °C 30.2in /  1024.0hPa WSW 0.9mph /  1.4km/h 1mph /  1.6km/h 89% 0in /  0.0mm 0 W/m2
07:19 27.1 °F /  -2.7 °C 24.6 °F /  -4.1 °C 30.2in /  1024.0hPa Calm     90% 0in /  0.0mm 0 W/m2
07:24 27.1 °F /  -2.7 °C 24.6 °F /  -4.1 °C 30.2in /  1024.0hPa Calm     90% 0in /  0.0mm 0 W/m2
07:29 27.1 °F /  -2.7 °C 24.6 °F /  -4.1 °C 30.2in /  1024.0hPa Calm     90% 0in /  0.0mm 0 W/m2
07:34 27.1 °F /  -2.7 °C 24.6 °F /  -4.1 °C 30.2in /  1024.0hPa Calm     90% 0in /  0.0mm 0 W/m2
07:39 27.1 °F /  -2.7 °C 24.6 °F /  -4.1 °C 30.2in /  1024.0hPa Calm     90% 0in /  0.0mm 0 W/m2
07:59 27 °F /  -2.8 °C 24.4 °F /  -4.2 °C 30.2in /  1024.0hPa Calm     90% 0in /  0.0mm 0 W/m2
08:04 27 °F /  -2.8 °C 24.4 °F /  -4.2 °C 30.2in /  1024.0hPa Calm     90% 0in /  0.0mm 0 W/m2
08:09 27 °F /  -2.8 °C 24.4 °F /  -4.2 °C 30.2in /  1024.0hPa Calm     90% 0in /  0.0mm 0 W/m2
08:14 27 °F /  -2.8 °C 24.6 °F /  -4.1 °C 30.2in /  1024.0hPa Calm     91% 0in /  0.0mm 0 W/m2
08:19 27.1 °F /  -2.7 °C 24.8 °F /  -4 °C 30.2in /  1024.0hPa Calm     91% 0in /  0.0mm 0 W/m2
08:24 27.1 °F /  -2.7 °C 24.6 °F /  -4.1 °C 30.2in /  1024.0hPa Calm     90% 0in /  0.0mm 0 W/m2
08:29 27.1 °F /  -2.7 °C 24.6 °F /  -4.1 °C 30.2in /  1024.0hPa Calm     90% 0in /  0.0mm 0 W/m2
08:34 27.1 °F /  -2.7 °C 24.6 °F /  -4.1 °C 30.2in /  1024.0hPa Calm     90% 0in /  0.0mm 5 W/m2
08:39 27.1 °F /  -2.7 °C 24.6 °F /  -4.1 °C 30.3in /  1024.4hPa Calm     90% 0in /  0.0mm 7 W/m2
08:44 27.1 °F /  -2.7 °C 24.6 °F /  -4.1 °C 30.3in /  1024.4hPa Calm     90% 0in /  0.0mm 7 W/m2
08:49 27.1 °F /  -2.7 °C 24.6 °F /  -4.1 °C 30.2in /  1024.0hPa Calm     90% 0in /  0.0mm 7 W/m2
08:54 27.1 °F /  -2.7 °C 24.6 °F /  -4.1 °C 30.3in /  1024.4hPa Calm     90% 0in /  0.0mm 7 W/m2
08:59 27.1 °F /  -2.7 °C 24.6 °F /  -4.1 °C 30.3in /  1024.4hPa Calm     90% 0in /  0.0mm 7 W/m2
09:04 32 °F /   °C 32 °F /   °C 0in /  0.0hPa Calm     % 0in /  0.0mm W/m2
09:09 27 °F /  -2.8 °C 24.4 °F /  -4.2 °C 30.3in /  1024.4hPa Calm     90% 0in /  0.0mm 12 W/m2
09:14 27 °F /  -2.8 °C 24.4 °F /  -4.2 °C 30.3in /  1024.4hPa Calm   1mph /  1.6km/h 90% 0in /  0.0mm 12 W/m2
09:19 27 °F /  -2.8 °C 24.4 °F /  -4.2 °C 30.3in /  1024.4hPa Calm     90% 0in /  0.0mm 14 W/m2
09:24 27 °F /  -2.8 °C 24.6 °F /  -4.1 °C 30.3in /  1024.4hPa Calm   1mph /  1.6km/h 91% 0in /  0.0mm 14 W/m2
09:30 27 °F /  -2.8 °C 24.6 °F /  -4.1 °C 30.3in /  1024.4hPa Calm     91% 0in /  0.0mm 16 W/m2
09:35 27 °F /  -2.8 °C 24.6 °F /  -4.1 °C 30.3in /  1024.4hPa Calm     91% 0in /  0.0mm 16 W/m2
09:40 27.1 °F /  -2.7 °C 24.8 °F /  -4 °C 30.3in /  1024.4hPa Calm   1mph /  1.6km/h 91% 0in /  0.0mm 16 W/m2
09:45 27.1 °F /  -2.7 °C 24.8 °F /  -4 °C 30.3in /  1024.4hPa Calm   2mph /  3.2km/h 91% 0in /  0.0mm 16 W/m2
09:50 27.5 °F /  -2.5 °C 25.2 °F /  -3.8 °C 30.3in /  1024.4hPa Calm     91% 0in /  0.0mm 18 W/m2
09:55 27.7 °F /  -2.4 °C 25.3 °F /  -3.7 °C 30.3in /  1024.4hPa Calm   2mph /  3.2km/h 91% 0in /  0.0mm 18 W/m2
10:00 27.9 °F /  -2.3 °C 25.3 °F /  -3.7 °C 30.3in /  1024.4hPa Calm   1mph /  1.6km/h 90% 0in /  0.0mm 18 W/m2
10:05 28 °F /  -2.2 °C 25.5 °F /  -3.6 °C 30.3in /  1024.7hPa Calm   1mph /  1.6km/h 90% 0in /  0.0mm 19 W/m2
10:10 28.2 °F /  -2.1 °C 25.7 °F /  -3.5 °C 30.3in /  1024.7hPa Calm   1mph /  1.6km/h 90% 0in /  0.0mm 19 W/m2
10:15 28.6 °F /  -1.9 °C 26.1 °F /  -3.3 °C 30.3in /  1024.7hPa Calm   1mph /  1.6km/h 90% 0in /  0.0mm 28 W/m2
10:20 28.8 °F /  -1.8 °C 25.9 °F /  -3.4 °C 30.3in /  1024.7hPa Calm   1mph /  1.6km/h 89% 0in /  0.0mm 21 W/m2
10:25 28.9 °F /  -1.7 °C 26.1 °F /  -3.3 °C 30.3in /  1024.4hPa Calm     89% 0in /  0.0mm 19 W/m2
10:30 28.9 °F /  -1.7 °C 26.1 °F /  -3.3 °C 30.3in /  1024.7hPa West 2mph /  3.2km/h 2mph /  3.2km/h 89% 0in /  0.0mm 23 W/m2
10:35 29.1 °F /  -1.6 °C 26.2 °F /  -3.2 °C 30.3in /  1024.7hPa NNW 2mph /  3.2km/h 2mph /  3.2km/h 89% 0in /  0.0mm 25 W/m2
10:40 29.5 °F /  -1.4 °C 26.4 °F /  -3.1 °C 30.3in /  1024.7hPa West 2.9mph /  4.7km/h 4mph /  6.4km/h 88% 0in /  0.0mm 21 W/m2
10:45 29.8 °F /  -1.2 °C 26.8 °F /  -2.9 °C 30.3in /  1024.7hPa NW 0.9mph /  1.4km/h 2mph /  3.2km/h 88% 0in /  0.0mm 21 W/m2
10:50 30 °F /  -1.1 °C 27 °F /  -2.8 °C 30.3in /  1024.7hPa Calm   4mph /  6.4km/h 88% 0in /  0.0mm 21 W/m2
10:55 30.2 °F /  -1 °C 26.8 °F /  -2.9 °C 30.3in /  1024.7hPa WNW 0.9mph /  1.4km/h 3mph /  4.8km/h 87% 0in /  0.0mm 21 W/m2
11:00 30.4 °F /  -0.9 °C 27 °F /  -2.8 °C 30.3in /  1024.7hPa Calm   1mph /  1.6km/h 87% 0in /  0.0mm 21 W/m2
11:05 30.6 °F /  -0.8 °C 27.1 °F /  -2.7 °C 30.3in /  1024.7hPa Calm   1mph /  1.6km/h 87% 0in /  0.0mm 23 W/m2
11:10 30.7 °F /  -0.7 °C 27.3 °F /  -2.6 °C 30.3in /  1024.7hPa Calm   2mph /  3.2km/h 87% 0in /  0.0mm 21 W/m2
11:15 30.9 °F /  -0.6 °C 27.5 °F /  -2.5 °C 30.3in /  1024.7hPa Calm   1mph /  1.6km/h 87% 0in /  0.0mm 21 W/m2
11:20 31.1 °F /  -0.5 °C 27.3 °F /  -2.6 °C 30.3in /  1024.4hPa Calm   1mph /  1.6km/h 86% 0in /  0.0mm 21 W/m2
11:25 31.3 °F /  -0.4 °C 27.5 °F /  -2.5 °C 30.3in /  1024.4hPa Calm   1mph /  1.6km/h 86% 0in /  0.0mm 21 W/m2
11:30 31.5 °F /  -0.3 °C 27.7 °F /  -2.4 °C 30.3in /  1024.4hPa Calm   2mph /  3.2km/h 86% 0in /  0.0mm 21 W/m2
11:35 31.6 °F /  -0.2 °C 27.9 °F /  -2.3 °C 30.3in /  1024.4hPa Calm   4mph /  6.4km/h 86% 0in /  0.0mm 21 W/m2
11:40 31.8 °F /  -0.1 °C 27.9 °F /  -2.3 °C 30.3in /  1024.4hPa NW 0.9mph /  1.4km/h 1mph /  1.6km/h 85% 0in /  0.0mm 28 W/m2
11:45 32.2 °F /  0.1 °C 28.2 °F /  -2.1 °C 30.3in /  1024.4hPa ENE 2mph /  3.2km/h 6mph /  9.7km/h 85% 0in /  0.0mm 23 W/m2
11:50 32.4 °F /  0.2 °C 28.4 °F /  -2 °C 30.3in /  1024.4hPa Calm   1mph /  1.6km/h 85% 0in /  0.0mm 26 W/m2
11:55 32.5 °F /  0.3 °C 28.6 °F /  -1.9 °C 30.3in /  1024.4hPa ENE 0.9mph /  1.4km/h 1mph /  1.6km/h 85% 0in /  0.0mm 23 W/m2
12:00 32.5 °F /  0.3 °C 28.2 °F /  -2.1 °C 30.2in /  1024.0hPa Calm   2mph /  3.2km/h 84% 0in /  0.0mm 23 W/m2
12:16 33.3 °F /  0.7 °C 28.9 °F /  -1.7 °C 30.2in /  1024.0hPa East 2mph /  3.2km/h 4mph /  6.4km/h 84% 0in /  0.0mm 23 W/m2
12:21 33.4 °F /  0.8 °C 28.8 °F /  -1.8 °C 30.2in /  1024.0hPa SE 2mph /  3.2km/h 4mph /  6.4km/h 83% 0in /  0.0mm 23 W/m2
12:26 34 °F /  1.1 °C 29.3 °F /  -1.5 °C 30.2in /  1024.0hPa East 2mph /  3.2km/h 5mph /  8km/h 83% 0in /  0.0mm 23 W/m2
12:31 34.2 °F /  1.2 °C 29.3 °F /  -1.5 °C 30.2in /  1023.7hPa East 0.9mph /  1.4km/h 6mph /  9.7km/h 82% 0in /  0.0mm 23 W/m2
12:36 34.3 °F /  1.3 °C 29.5 °F /  -1.4 °C 30.2in /  1023.7hPa ENE 2.9mph /  4.7km/h 4mph /  6.4km/h 82% 0in /  0.0mm 23 W/m2
12:41 34.3 °F /  1.3 °C 29.1 °F /  -1.6 °C 30.2in /  1023.7hPa Calm   4mph /  6.4km/h 81% 0in /  0.0mm 23 W/m2
12:46 34.5 °F /  1.4 °C 29.3 °F /  -1.5 °C 30.2in /  1023.7hPa East 2mph /  3.2km/h 2mph /  3.2km/h 81% 0in /  0.0mm 23 W/m2
12:51 34.5 °F /  1.4 °C 29.3 °F /  -1.5 °C 30.2in /  1023.4hPa Calm   1mph /  1.6km/h 81% 0in /  0.0mm 21 W/m2
12:56 34.7 °F /  1.5 °C 29.5 °F /  -1.4 °C 30.2in /  1023.4hPa NE 2.9mph /  4.7km/h 6mph /  9.7km/h 81% 0in /  0.0mm 21 W/m2
13:01 34.9 °F /  1.6 °C 29.7 °F /  -1.3 °C 30.2in /  1023.4hPa Calm   2mph /  3.2km/h 81% 0in /  0.0mm 21 W/m2
13:06 35.1 °F /  1.7 °C 29.5 °F /  -1.4 °C 30.2in /  1023.4hPa West 0.9mph /  1.4km/h 6mph /  9.7km/h 80% 0in /  0.0mm 21 W/m2
13:11 35.1 °F /  1.7 °C 29.5 °F /  -1.4 °C 30.2in /  1023.4hPa ENE 0.9mph /  1.4km/h 3mph /  4.8km/h 80% 0in /  0.0mm 21 W/m2
13:16 35.1 °F /  1.7 °C 29.5 °F /  -1.4 °C 30.2in /  1023.4hPa East 0.9mph /  1.4km/h 4mph /  6.4km/h 80% 0in /  0.0mm 21 W/m2
13:21 35.2 °F /  1.8 °C 29.7 °F /  -1.3 °C 30.2in /  1023.4hPa Calm   1mph /  1.6km/h 80% 0in /  0.0mm 21 W/m2
13:26 35.2 °F /  1.8 °C 29.7 °F /  -1.3 °C 30.2in /  1023.4hPa WNW 0.9mph /  1.4km/h 2mph /  3.2km/h 80% 0in /  0.0mm 21 W/m2
13:31 35.2 °F /  1.8 °C 29.7 °F /  -1.3 °C 30.2in /  1023.4hPa ENE 2mph /  3.2km/h 3mph /  4.8km/h 80% 0in /  0.0mm 21 W/m2
13:36 35.2 °F /  1.8 °C 29.7 °F /  -1.3 °C 30.2in /  1023.4hPa ESE 4mph /  6.4km/h 4mph /  6.4km/h 80% 0in /  0.0mm 21 W/m2
13:41 35.4 °F /  1.9 °C 29.8 °F /  -1.2 °C 30.2in /  1023.4hPa Calm   3mph /  4.8km/h 80% 0in /  0.0mm 21 W/m2
13:46 35.8 °F /  2.1 °C 29.8 °F /  -1.2 °C 30.2in /  1023.4hPa ENE 0.9mph /  1.4km/h 2mph /  3.2km/h 79% 0in /  0.0mm 21 W/m2
13:51 35.8 °F /  2.1 °C 29.8 °F /  -1.2 °C 30.2in /  1023.0hPa East 2.9mph /  4.7km/h 6mph /  9.7km/h 79% 0in /  0.0mm 21 W/m2
13:56 36 °F /  2.2 °C 30 °F /  -1.1 °C 30.2in /  1023.0hPa ENE 0.9mph /  1.4km/h 1mph /  1.6km/h 79% 0in /  0.0mm 21 W/m2
14:01 36 °F /  2.2 °C 29.8 °F /  -1.2 °C 30.2in /  1023.0hPa East 0.9mph /  1.4km/h 5mph /  8km/h 78% 0in /  0.0mm 19 W/m2
14:06 36 °F /  2.2 °C 29.8 °F /  -1.2 °C 30.2in /  1023.0hPa Calm   3mph /  4.8km/h 78% 0in /  0.0mm 19 W/m2
14:12 36 °F /  2.2 °C 29.8 °F /  -1.2 °C 30.2in /  1023.0hPa Calm   3mph /  4.8km/h 78% 0in /  0.0mm 19 W/m2
14:17 36 °F /  2.2 °C 30 °F /  -1.1 °C 30.2in /  1023.0hPa Calm   2mph /  3.2km/h 79% 0in /  0.0mm 19 W/m2
14:22 36 °F /  2.2 °C 29.8 °F /  -1.2 °C 30.2in /  1023.0hPa Calm   2mph /  3.2km/h 78% 0in /  0.0mm 19 W/m2
14:27 36.1 °F /  2.3 °C 30 °F /  -1.1 °C 30.2in /  1023.0hPa ESE 0.9mph /  1.4km/h 2mph /  3.2km/h 78% 0in /  0.0mm 19 W/m2
14:32 36.1 °F /  2.3 °C 30 °F /  -1.1 °C 30.2in /  1023.0hPa Calm   2mph /  3.2km/h 78% 0in /  0.0mm 19 W/m2
14:52 36.1 °F /  2.3 °C 30 °F /  -1.1 °C 30.2in /  1022.7hPa SE 0.9mph /  1.4km/h 3mph /  4.8km/h 78% 0in /  0.0mm 18 W/m2
14:57 36.1 °F /  2.3 °C 30 °F /  -1.1 °C 30.2in /  1022.7hPa East 2.9mph /  4.7km/h 3mph /  4.8km/h 78% 0in /  0.0mm 18 W/m2
15:02 36.3 °F /  2.4 °C 29.8 °F /  -1.2 °C 30.2in /  1022.7hPa NNE 0.9mph /  1.4km/h 3mph /  4.8km/h 77% 0in /  0.0mm 18 W/m2
15:07 36.5 °F /  2.5 °C 30 °F /  -1.1 °C 30.2in /  1022.7hPa East 0.9mph /  1.4km/h 3mph /  4.8km/h 77% 0in /  0.0mm 18 W/m2
15:12 36.5 °F /  2.5 °C 30 °F /  -1.1 °C 30.2in /  1022.7hPa Calm     77% 0in /  0.0mm 16 W/m2
15:17 36.5 °F /  2.5 °C 30 °F /  -1.1 °C 30.2in /  1022.7hPa Calm   3mph /  4.8km/h 77% 0in /  0.0mm 16 W/m2
15:32 36.3 °F /  2.4 °C 29.8 °F /  -1.2 °C 30.2in /  1022.7hPa Calm   1mph /  1.6km/h 77% 0in /  0.0mm 16 W/m2
15:37 36.3 °F /  2.4 °C 29.8 °F /  -1.2 °C 30.2in /  1022.7hPa East 0.9mph /  1.4km/h 4mph /  6.4km/h 77% 0in /  0.0mm 14 W/m2
15:42 36.1 °F /  2.3 °C 29.7 °F /  -1.3 °C 30.2in /  1022.7hPa Calm   2mph /  3.2km/h 77% 0in /  0.0mm 14 W/m2
15:47 36.1 °F /  2.3 °C 30 °F /  -1.1 °C 30.2in /  1022.7hPa Calm     78% 0in /  0.0mm 14 W/m2
15:52 36 °F /  2.2 °C 29.8 °F /  -1.2 °C 30.2in /  1022.7hPa Calm     78% 0in /  0.0mm 12 W/m2
15:57 35.6 °F /  2 °C 29.7 °F /  -1.3 °C 30.2in /  1022.7hPa Calm     79% 0in /  0.0mm 12 W/m2
16:02 35.4 °F /  1.9 °C 29.5 °F /  -1.4 °C 30.2in /  1022.7hPa Calm     79% 0in /  0.0mm 12 W/m2
16:08 35.2 °F /  1.8 °C 29.3 °F /  -1.5 °C 30.2in /  1022.7hPa Calm     79% 0in /  0.0mm 11 W/m2
16:13 35.1 °F /  1.7 °C 29.1 °F /  -1.6 °C 30.2in /  1022.7hPa NNE 0.9mph /  1.4km/h 2mph /  3.2km/h 79% 0in /  0.0mm 11 W/m2
16:18 35.1 °F /  1.7 °C 29.1 °F /  -1.6 °C 30.2in /  1022.7hPa Calm   1mph /  1.6km/h 79% 0in /  0.0mm 9 W/m2
16:23 35.2 °F /  1.8 °C 29.3 °F /  -1.5 °C 30.2in /  1022.7hPa Calm     79% 0in /  0.0mm 7 W/m2
16:28 35.1 °F /  1.7 °C 29.1 °F /  -1.6 °C 30.2in /  1022.7hPa Calm     79% 0in /  0.0mm 7 W/m2
16:39 32 °F /   °C 32 °F /   °C 0in /  0.0hPa Calm     % 0in /  0.0mm W/m2
16:50 32 °F /   °C 32 °F /   °C 0in /  0.0hPa Calm     % 0in /  0.0mm W/m2
17:05 34 °F /  1.1 °C 29.1 °F /  -1.6 °C 30.2in /  1023.0hPa Calm     82% 0in /  0.0mm 0 W/m2
17:10 34 °F /  1.1 °C 29.1 °F /  -1.6 °C 30.2in /  1023.4hPa Calm   1mph /  1.6km/h 82% 0in /  0.0mm 0 W/m2
18:17 30.7 °F /  -0.7 °C 27.3 °F /  -2.6 °C 30.2in /  1023.7hPa Calm   1mph /  1.6km/h 87% 0in /  0.0mm 0 W/m2
18:22 30.7 °F /  -0.7 °C 27.7 °F /  -2.4 °C 30.2in /  1023.7hPa West 0.9mph /  1.4km/h 2mph /  3.2km/h 88% 0in /  0.0mm 0 W/m2
21:11 28.6 °F /  -1.9 °C 25.7 °F /  -3.5 °C 30.3in /  1024.7hPa Calm     89% 0in /  0.0mm 0 W/m2
21:16 28.8 °F /  -1.8 °C 25.9 °F /  -3.4 °C 30.3in /  1024.7hPa WSW 0.9mph /  1.4km/h 1mph /  1.6km/h 89% 0in /  0.0mm 0 W/m2
22:31 27.9 °F /  -2.3 °C 25.5 °F /  -3.6 °C 30.3in /  1025.1hPa Calm     91% 0in /  0.0mm 0 W/m2
22:36 27.7 °F /  -2.4 °C 25.3 °F /  -3.7 °C 30.3in /  1025.1hPa Calm   1mph /  1.6km/h 91% 0in /  0.0mm 0 W/m2
Juneau County Weather
Compliments of Weather Underground - 4 mb